createdAt,value
2022-09-13T00:00:39.697Z,7.35
2022-09-13T00:03:08.621Z,8.25
2022-09-13T00:05:40.113Z,7.05
2022-09-13T00:08:11.055Z,7.53
2022-09-13T00:10:44.139Z,7.85
2022-09-13T00:13:13.226Z,6.90
2022-09-13T00:15:52.417Z,8.13
2022-09-13T00:18:21.191Z,7.40
2022-09-13T00:20:49.354Z,7.20
2022-09-13T00:23:20.463Z,7.72
2022-09-13T00:25:48.292Z,7.10
2022-09-13T00:28:26.591Z,6.30
2022-09-13T00:30:54.323Z,6.50
2022-09-13T00:33:22.685Z,8.35
2022-09-13T00:35:54.617Z,6.75
2022-09-13T00:38:24.929Z,7.10
2022-09-13T00:40:52.627Z,6.35
2022-09-13T00:43:22.155Z,6.07
2022-09-13T00:45:50.094Z,5.90
2022-09-13T00:48:26.293Z,6.20
2022-09-13T00:50:59.907Z,5.88
2022-09-13T00:53:43.977Z,6.03
2022-09-13T00:56:28.261Z,7.35
2022-09-13T00:59:04.460Z,5.95
2022-09-13T01:01:44.452Z,5.75
2022-09-13T01:04:17.349Z,6.85
2022-09-13T01:06:49.325Z,5.38
2022-09-13T01:09:18.207Z,5.82
2022-09-13T01:12:04.592Z,5.63
2022-09-13T01:14:33.387Z,6.10
2022-09-13T01:17:01.370Z,5.82
2022-09-13T01:19:29.290Z,5.10
2022-09-13T01:22:15.737Z,6.00
2022-09-13T01:25:05.195Z,5.72
2022-09-13T01:27:49.978Z,6.13
2022-09-13T01:30:27.508Z,6.28
2022-09-13T01:33:02.989Z,5.70
2022-09-13T01:35:54.111Z,6.03
2022-09-13T01:38:54.599Z,5.80
2022-09-13T01:41:31.191Z,6.15
2022-09-13T01:44:25.593Z,5.25
2022-09-13T01:47:14.720Z,5.57
2022-09-13T01:50:09.695Z,5.32
2022-09-13T01:52:50.151Z,5.07
2022-09-13T01:55:39.263Z,7.18
2022-09-13T01:58:48.097Z,5.30
2022-09-13T02:01:25.528Z,6.05
2022-09-13T02:04:15.230Z,5.90
2022-09-13T02:07:13.478Z,5.05
2022-09-13T02:09:51.531Z,5.88
2022-09-13T02:12:24.172Z,6.05
2022-09-13T02:15:16.693Z,6.03
2022-09-13T02:17:50.731Z,5.45
2022-09-13T02:20:33.323Z,5.90
2022-09-13T02:23:05.372Z,6.18
2022-09-13T02:25:40.041Z,5.85
2022-09-13T02:28:12.059Z,8.40
2022-09-13T02:30:50.162Z,6.00
2022-09-13T02:33:31.165Z,7.00
2022-09-13T02:36:27.220Z,5.88
2022-09-13T02:39:03.383Z,5.80
2022-09-13T02:41:54.658Z,6.30
2022-09-13T02:44:22.185Z,8.30
2022-09-13T02:47:00.213Z,8.00
2022-09-13T02:50:06.169Z,8.40
2022-09-13T02:52:55.906Z,7.47
2022-09-13T02:55:56.501Z,8.25
2022-09-13T02:58:47.485Z,8.00
2022-09-13T03:01:15.690Z,7.50
2022-09-13T03:03:45.113Z,8.85
2022-09-13T03:06:28.206Z,9.00
2022-09-13T03:09:03.164Z,8.35
2022-09-13T03:11:44.177Z,7.80
2022-09-13T03:14:33.203Z,8.38
2022-09-13T03:17:12.007Z,7.65
2022-09-13T03:20:14.746Z,8.13
2022-09-13T03:23:30.336Z,7.78
2022-09-13T03:26:22.605Z,8.75
2022-09-13T03:29:03.154Z,8.18
2022-09-13T03:34:23.111Z,7.53
2022-09-13T03:36:57.171Z,7.13
2022-09-13T03:39:44.376Z,8.23
2022-09-13T03:42:33.991Z,7.63
2022-09-13T03:45:12.010Z,7.93
2022-09-13T03:47:44.591Z,8.65
2022-09-13T03:50:29.602Z,7.88
2022-09-13T03:53:03.518Z,8.95
2022-09-13T03:55:39.370Z,9.73
2022-09-13T03:58:07.363Z,8.98
2022-09-13T04:00:35.039Z,9.05
2022-09-13T04:03:02.764Z,8.50
2022-09-13T04:05:33.083Z,8.88
2022-09-13T04:08:01.956Z,9.32
2022-09-13T04:10:33.843Z,8.25
2022-09-13T04:13:01.680Z,9.05
2022-09-13T04:15:31.367Z,7.95
2022-09-13T04:17:59.889Z,9.07
2022-09-13T04:20:49.174Z,9.48
2022-09-13T04:23:23.554Z,9.38
2022-09-13T04:25:51.661Z,9.13
2022-09-13T04:28:20.404Z,9.35
2022-09-13T04:30:51.192Z,8.52
2022-09-13T04:33:19.871Z,8.32
2022-09-13T04:35:51.253Z,8.70
2022-09-13T04:38:18.911Z,8.70
2022-09-13T04:40:53.697Z,8.35
2022-09-13T04:43:22.909Z,7.85
2022-09-13T04:45:50.967Z,7.90
2022-09-13T04:48:19.117Z,7.95
2022-09-13T04:50:47.828Z,7.40
2022-09-13T04:53:18.744Z,7.93
2022-09-13T04:55:46.407Z,7.80
2022-09-13T04:58:14.296Z,8.00
2022-09-13T05:00:46.170Z,8.18
2022-09-13T05:03:16.709Z,7.80
2022-09-13T05:05:46.203Z,7.30
2022-09-13T05:08:18.722Z,7.20
2022-09-13T05:10:49.644Z,7.50
2022-09-13T05:13:18.372Z,7.40
2022-09-13T05:15:47.260Z,8.18
2022-09-13T05:18:15.000Z,7.60
2022-09-13T05:20:42.755Z,8.18
2022-09-13T05:23:13.397Z,7.55
2022-09-13T05:25:44.075Z,7.00
2022-09-13T05:28:12.167Z,8.07
2022-09-13T05:30:42.459Z,7.25
2022-09-13T05:33:10.200Z,8.00
2022-09-13T05:35:45.087Z,6.53
2022-09-13T05:38:12.695Z,7.65
2022-09-13T05:40:42.796Z,7.38
2022-09-13T05:43:10.484Z,7.50
2022-09-13T05:45:38.360Z,7.60
2022-09-13T05:48:08.846Z,7.93
2022-09-13T05:50:57.644Z,7.25
2022-09-13T05:53:26.061Z,7.28
2022-09-13T05:55:53.725Z,7.70
2022-09-13T05:58:23.649Z,8.02
2022-09-13T06:00:58.503Z,7.30
2022-09-13T06:03:26.395Z,7.30
2022-09-13T06:06:00.553Z,8.07
2022-09-13T06:08:31.257Z,7.82
2022-09-13T06:11:07.506Z,8.77
2022-09-13T06:13:36.028Z,8.38
2022-09-13T06:16:06.210Z,9.20
2022-09-13T06:18:36.030Z,8.18
2022-09-13T06:21:29.914Z,9.17
2022-09-13T06:24:01.257Z,8.32
2022-09-13T06:26:43.198Z,9.13
2022-09-13T06:29:46.292Z,8.38
2022-09-13T06:32:16.351Z,9.90
2022-09-13T06:34:44.056Z,9.82
2022-09-13T06:37:14.441Z,9.00
2022-09-13T06:39:47.817Z,9.15
2022-09-13T06:42:17.998Z,9.88
2022-09-13T06:44:52.073Z,10.40
2022-09-13T06:47:19.733Z,9.70
2022-09-13T06:49:47.324Z,9.93
2022-09-13T06:52:15.099Z,8.55
2022-09-13T06:54:43.987Z,8.43
2022-09-13T06:57:11.958Z,9.18
2022-09-13T06:59:42.038Z,7.95
2022-09-13T07:02:11.188Z,8.50
2022-09-13T07:04:38.820Z,9.30
2022-09-13T07:07:06.499Z,9.27
2022-09-13T07:09:35.574Z,8.68
2022-09-13T07:12:07.449Z,9.05
2022-09-13T07:14:39.235Z,8.50
2022-09-13T07:17:10.344Z,8.73
2022-09-13T07:19:38.926Z,8.35
2022-09-13T07:22:06.618Z,8.15
2022-09-13T07:24:38.434Z,6.60
2022-09-13T07:27:06.118Z,5.53
2022-09-13T07:29:33.862Z,5.80
2022-09-13T07:32:05.537Z,5.85
2022-09-13T07:34:33.826Z,5.90
2022-09-13T07:37:04.524Z,5.35
2022-09-13T07:39:32.139Z,5.28
2022-09-13T07:41:59.874Z,5.03
2022-09-13T07:44:27.540Z,5.70
2022-09-13T07:46:55.331Z,5.30
2022-09-13T07:49:27.436Z,5.63
2022-09-13T07:51:55.615Z,4.43
2022-09-13T07:54:23.260Z,4.75
2022-09-13T07:56:51.890Z,5.05
2022-09-13T07:59:19.793Z,4.57
2022-09-13T08:01:51.539Z,4.78
2022-09-13T08:04:23.816Z,5.45
2022-09-13T08:06:51.556Z,5.07
2022-09-13T08:09:19.762Z,4.75
2022-09-13T08:11:53.080Z,5.00
2022-09-13T08:14:22.486Z,5.22
2022-09-13T08:16:50.969Z,5.43
2022-09-13T08:19:19.482Z,4.50
2022-09-13T08:21:47.223Z,4.20
2022-09-13T08:24:19.935Z,5.32
2022-09-13T08:26:48.337Z,4.57
2022-09-13T08:29:17.550Z,4.72
2022-09-13T08:31:45.531Z,5.68
2022-09-13T08:34:15.483Z,6.18
2022-09-13T08:36:43.871Z,6.53
2022-09-13T08:39:13.775Z,7.00
2022-09-13T08:41:48.666Z,7.53
2022-09-13T08:44:31.439Z,7.10
2022-09-13T08:47:20.895Z,7.07
2022-09-13T08:50:06.234Z,6.57
2022-09-13T08:52:41.037Z,6.97
2022-09-13T08:55:31.940Z,7.38
2022-09-13T08:58:02.713Z,7.68
2022-09-13T09:00:41.198Z,8.73
2022-09-13T09:03:24.201Z,8.43
2022-09-13T09:05:52.605Z,10.15
2022-09-13T09:08:49.866Z,9.15
2022-09-13T09:11:37.362Z,11.13
2022-09-13T09:14:18.136Z,10.15
2022-09-13T09:16:53.841Z,10.88
2022-09-13T09:19:27.399Z,9.60
2022-09-13T09:21:59.826Z,9.20
2022-09-13T09:24:32.412Z,9.13
2022-09-13T09:27:03.255Z,10.13
2022-09-13T09:29:41.086Z,10.02
2022-09-13T09:32:40.338Z,8.30
2022-09-13T09:35:27.644Z,8.55
2022-09-13T09:38:48.576Z,8.55
2022-09-13T09:41:26.919Z,8.93
2022-09-13T09:44:20.597Z,8.85
2022-09-13T09:47:11.173Z,8.40
2022-09-13T09:52:59.190Z,7.68
2022-09-13T09:55:49.222Z,7.65
2022-09-13T09:58:41.118Z,7.05
2022-09-13T10:01:26.062Z,7.53
2022-09-13T10:04:24.286Z,7.60
2022-09-13T10:07:23.252Z,6.55
2022-09-13T10:10:05.889Z,6.50
2022-09-13T10:12:37.647Z,7.28
2022-09-13T10:15:20.446Z,6.90
2022-09-13T10:18:42.483Z,7.45
2022-09-13T10:21:08.238Z,7.47
2022-09-13T10:23:37.394Z,7.40
2022-09-13T10:26:27.045Z,7.35
2022-09-13T10:29:07.652Z,7.10
2022-09-13T10:31:43.976Z,7.18
2022-09-13T10:34:23.104Z,7.32
2022-09-13T10:36:54.458Z,7.60
2022-09-13T10:39:24.885Z,7.82
2022-09-13T10:44:41.451Z,8.00
2022-09-13T10:47:39.595Z,7.28
2022-09-13T10:50:33.522Z,8.23
2022-09-13T10:53:03.199Z,8.35
2022-09-13T10:55:37.100Z,8.90
2022-09-13T10:58:07.830Z,9.27
2022-09-13T11:00:57.208Z,8.73
2022-09-13T11:04:05.195Z,7.00
2022-09-13T11:06:46.539Z,7.28
2022-09-13T11:09:33.793Z,8.50
2022-09-13T11:12:34.353Z,7.85
2022-09-13T11:15:27.443Z,7.78
2022-09-13T11:18:10.331Z,9.57
2022-09-13T11:21:16.631Z,9.32
2022-09-13T11:23:47.317Z,10.52
2022-09-13T11:26:37.343Z,9.63
2022-09-13T11:29:24.628Z,9.25
2022-09-13T11:32:16.611Z,9.65
2022-09-13T11:38:00.022Z,10.73
2022-09-13T11:40:36.188Z,10.65
2022-09-13T11:43:17.356Z,10.40
2022-09-13T11:46:16.199Z,11.57
2022-09-13T11:48:57.961Z,11.30
2022-09-13T11:51:50.401Z,9.93
2022-09-13T11:54:36.529Z,11.27
2022-09-13T11:57:20.065Z,10.80
2022-09-13T12:00:03.017Z,11.07
2022-09-13T12:03:10.443Z,10.38
2022-09-13T12:06:20.950Z,11.88
2022-09-13T12:08:54.706Z,10.73
2022-09-13T12:11:35.148Z,32.85
2022-09-13T12:14:19.090Z,11.50
2022-09-13T12:16:51.539Z,11.50
2022-09-13T12:19:50.290Z,12.68
2022-09-13T12:22:30.723Z,11.50
2022-09-13T12:25:04.188Z,39.78
2022-09-13T12:27:48.899Z,12.18
2022-09-13T12:30:22.143Z,12.20
2022-09-13T12:32:58.636Z,10.68
2022-09-13T12:35:42.470Z,11.73
2022-09-13T12:39:03.650Z,10.60
2022-09-13T12:42:20.644Z,11.52
2022-09-13T12:45:04.146Z,10.77
2022-09-13T12:47:47.832Z,9.95
2022-09-13T12:50:53.380Z,11.85
2022-09-13T12:53:50.402Z,10.63
2022-09-13T12:56:43.336Z,11.00
2022-09-13T12:59:27.543Z,9.13
2022-09-13T13:01:57.408Z,9.63
2022-09-13T13:04:36.002Z,9.38
2022-09-13T13:07:19.058Z,8.98
2022-09-13T13:09:53.896Z,8.70
2022-09-13T13:12:32.960Z,9.25
2022-09-13T13:15:17.867Z,8.45
2022-09-13T13:18:28.108Z,9.73
2022-09-13T13:21:01.802Z,7.78
2022-09-13T13:23:39.401Z,8.60
2022-09-13T13:26:33.073Z,7.95
2022-09-13T13:29:06.082Z,8.65
2022-09-13T13:31:38.018Z,7.65
2022-09-13T13:34:14.358Z,8.45
2022-09-13T13:36:42.148Z,8.05
2022-09-13T13:39:25.185Z,8.13
2022-09-13T13:41:54.424Z,7.88
2022-09-13T13:44:22.008Z,7.93
2022-09-13T13:47:13.365Z,6.85
2022-09-13T13:49:40.936Z,7.03
2022-09-13T13:52:11.959Z,5.60
2022-09-13T13:54:43.308Z,5.32
2022-09-13T13:57:23.113Z,5.05
2022-09-13T14:00:11.627Z,4.68
2022-09-13T14:02:50.691Z,4.90
2022-09-13T14:05:54.678Z,4.80
2022-09-13T14:08:42.373Z,3.58
2022-09-13T14:11:41.643Z,4.13
2022-09-13T14:14:28.217Z,4.47
2022-09-13T14:17:29.589Z,4.45
2022-09-13T14:20:16.077Z,4.20
2022-09-13T14:22:46.615Z,4.03
2022-09-13T14:28:12.121Z,4.78
2022-09-13T14:30:47.169Z,4.38
2022-09-13T14:33:32.613Z,5.13
2022-09-13T14:36:22.976Z,3.78
2022-09-13T14:38:58.892Z,4.32
2022-09-13T14:41:33.344Z,3.47
2022-09-13T14:44:29.048Z,4.25
2022-09-13T14:47:18.516Z,3.78
2022-09-13T14:49:54.031Z,3.92
2022-09-13T14:52:30.381Z,3.53
2022-09-13T14:55:04.500Z,4.53
2022-09-13T14:57:45.680Z,4.40
2022-09-13T15:03:16.072Z,4.55
2022-09-13T15:05:58.748Z,3.15
2022-09-13T15:08:36.176Z,3.50
2022-09-13T15:11:16.400Z,4.22
2022-09-13T15:13:44.515Z,4.82
2022-09-13T15:16:54.058Z,3.70
2022-09-13T15:19:51.636Z,4.70
2022-09-13T15:22:30.222Z,3.70
2022-09-13T15:24:59.437Z,2.53
2022-09-13T15:27:54.580Z,2.38
2022-09-13T15:30:31.760Z,2.70
2022-09-13T15:33:11.687Z,2.95
2022-09-13T15:35:44.660Z,3.08
2022-09-13T15:38:16.998Z,3.20
2022-09-13T15:41:01.427Z,2.22
2022-09-13T15:43:32.366Z,2.53
2022-09-13T15:46:04.943Z,4.30
2022-09-13T15:48:37.911Z,5.07
2022-09-13T15:51:13.427Z,3.97
2022-09-13T15:53:44.369Z,3.70
2022-09-13T15:56:29.519Z,3.05
2022-09-13T15:58:57.157Z,3.35
2022-09-13T16:01:25.669Z,2.85
2022-09-13T16:03:53.944Z,4.75
2022-09-13T16:06:24.808Z,3.80
2022-09-13T16:08:52.716Z,3.28
2022-09-13T16:11:28.048Z,3.67
2022-09-13T16:13:57.125Z,2.95
2022-09-13T16:16:24.849Z,3.92
2022-09-13T16:18:52.614Z,4.20
2022-09-13T16:21:20.270Z,3.58
2022-09-13T16:23:48.006Z,3.33
2022-09-13T16:26:16.342Z,3.08
2022-09-13T16:28:43.962Z,3.25
2022-09-13T16:31:17.152Z,3.80
2022-09-13T16:33:47.667Z,3.78
2022-09-13T16:36:16.627Z,3.78
2022-09-13T16:38:44.445Z,3.60
2022-09-13T16:41:15.269Z,3.17
2022-09-13T16:43:43.177Z,2.85
2022-09-13T16:46:13.613Z,3.25
2022-09-13T16:51:12.846Z,3.25
2022-09-13T16:53:41.947Z,2.58
2022-09-13T16:56:17.594Z,2.75
2022-09-13T16:58:49.699Z,2.50
2022-09-13T17:01:26.463Z,2.65
2022-09-13T17:03:55.603Z,2.53
2022-09-13T17:06:27.659Z,2.78
2022-09-13T17:09:00.710Z,2.80
2022-09-13T17:11:32.647Z,2.60
2022-09-13T17:14:01.745Z,3.10
2022-09-13T17:16:37.438Z,2.92
2022-09-13T17:19:08.391Z,2.95
2022-09-13T17:21:41.413Z,2.40
2022-09-13T17:24:13.798Z,2.60
2022-09-13T17:26:44.445Z,3.73
2022-09-13T17:31:40.344Z,2.88
2022-09-13T17:34:08.512Z,3.00
2022-09-13T17:36:36.381Z,3.10
2022-09-13T17:39:07.462Z,2.90
2022-09-13T17:41:37.972Z,2.75
2022-09-13T17:46:34.653Z,2.72
2022-09-13T17:49:16.045Z,3.13
2022-09-13T17:51:46.200Z,3.42
2022-09-13T17:54:13.919Z,3.00
2022-09-13T17:56:44.421Z,3.88
2022-09-13T18:01:49.770Z,5.35
2022-09-13T18:04:23.217Z,5.28
2022-09-13T18:06:55.736Z,5.07
2022-09-13T18:09:24.414Z,4.38
2022-09-13T18:11:52.131Z,4.03
2022-09-13T18:14:22.060Z,3.42
2022-09-13T18:16:55.535Z,6.30
2022-09-13T18:19:45.209Z,6.07
2022-09-13T18:22:13.925Z,4.93
2022-09-13T18:24:41.585Z,4.50
2022-09-13T18:27:09.151Z,3.28
2022-09-13T18:29:36.876Z,3.10
2022-09-13T18:32:04.606Z,3.63
2022-09-13T18:34:34.294Z,3.70
2022-09-13T18:37:02.518Z,3.28
2022-09-13T18:39:36.472Z,2.90
2022-09-13T18:42:04.687Z,3.22
2022-09-13T18:44:34.069Z,3.35
2022-09-13T18:47:03.958Z,3.17
2022-09-13T18:49:32.788Z,4.45
2022-09-13T18:52:00.461Z,3.83
2022-09-13T18:54:28.132Z,3.90
2022-09-13T18:56:56.351Z,4.63
2022-09-13T18:59:24.143Z,4.78
2022-09-13T19:01:52.166Z,5.47
2022-09-13T19:04:22.932Z,6.38
2022-09-13T19:06:58.321Z,5.63
2022-09-13T19:09:34.672Z,6.30
2022-09-13T19:12:06.316Z,5.55
2022-09-13T19:14:35.396Z,5.65
2022-09-13T19:17:04.723Z,6.32
2022-09-13T19:19:35.761Z,5.50
2022-09-13T19:22:03.517Z,5.35
2022-09-13T19:24:31.377Z,5.70
2022-09-13T19:27:01.079Z,5.57
2022-09-13T19:29:29.201Z,4.10
2022-09-13T19:32:00.007Z,6.72
2022-09-13T19:34:27.845Z,5.50
2022-09-13T19:37:00.641Z,11.73
2022-09-13T19:39:30.579Z,9.60
2022-09-13T19:42:32.335Z,8.70
2022-09-13T19:50:51.548Z,4.00
2022-09-13T19:53:35.532Z,3.17
2022-09-13T19:56:15.683Z,4.40
2022-09-13T19:58:44.418Z,4.25
2022-09-13T20:01:16.204Z,5.28
2022-09-13T20:03:53.618Z,4.28
2022-09-13T20:06:24.312Z,4.55
2022-09-13T20:08:53.838Z,5.10
2022-09-13T20:11:28.672Z,5.60
2022-09-13T20:13:59.732Z,7.93
2022-09-13T20:16:32.222Z,7.20
2022-09-13T20:22:01.840Z,6.22
2022-09-13T20:24:29.602Z,6.18
2022-09-13T20:26:57.262Z,5.75
2022-09-13T20:29:27.778Z,6.13
2022-09-13T20:31:59.682Z,5.15
2022-09-13T20:34:38.764Z,5.57
2022-09-13T20:37:07.218Z,5.90
2022-09-13T20:39:35.187Z,5.07
2022-09-13T20:42:03.108Z,5.72
2022-09-13T20:44:34.236Z,5.25
2022-09-13T20:47:02.733Z,5.32
2022-09-13T20:49:31.507Z,6.13
2022-09-13T20:52:00.001Z,6.10
2022-09-13T20:54:32.603Z,5.80
2022-09-13T20:57:33.777Z,5.80
2022-09-13T21:00:40.896Z,5.82
2022-09-13T21:03:10.312Z,6.25
2022-09-13T21:05:42.441Z,6.05
2022-09-13T21:08:34.881Z,7.03
2022-09-13T21:11:03.953Z,6.85
2022-09-13T21:13:34.438Z,7.03
2022-09-13T21:16:04.444Z,7.32
2022-09-13T21:18:32.259Z,7.65
2022-09-13T21:21:02.070Z,7.63
2022-09-13T21:23:40.351Z,7.30
2022-09-13T21:26:11.877Z,6.47
2022-09-13T21:28:43.814Z,7.03
2022-09-13T21:31:17.194Z,7.05
2022-09-13T21:33:49.188Z,8.35
2022-09-13T21:36:21.287Z,7.00
2022-09-13T21:38:48.986Z,9.65
2022-09-13T21:41:18.517Z,8.32
2022-09-13T21:43:46.761Z,8.57
2022-09-13T21:46:18.085Z,8.00
2022-09-13T21:48:51.899Z,7.53
2022-09-13T21:51:24.840Z,7.75
2022-09-13T21:54:05.630Z,7.38
2022-09-13T21:56:46.597Z,7.28
2022-09-13T21:59:17.068Z,7.38
2022-09-13T22:01:47.035Z,7.75
2022-09-13T22:04:19.326Z,6.63
2022-09-13T22:06:48.663Z,6.05
2022-09-13T22:09:18.136Z,6.10
2022-09-13T22:11:48.053Z,8.60
2022-09-13T22:14:21.199Z,6.13
2022-09-13T22:16:50.848Z,6.25
2022-09-13T22:19:26.976Z,5.80
2022-09-13T22:21:58.979Z,6.97
2022-09-13T22:24:30.231Z,8.00
2022-09-13T22:26:59.193Z,7.50
2022-09-13T22:29:30.155Z,9.13
2022-09-13T22:31:57.754Z,9.45
2022-09-13T22:34:27.572Z,9.82
2022-09-13T22:36:56.859Z,11.33
2022-09-13T22:39:25.767Z,8.32
2022-09-13T22:41:53.429Z,9.23
2022-09-13T22:44:24.529Z,10.45
2022-09-13T22:46:52.167Z,10.00
2022-09-13T22:49:21.818Z,9.75
2022-09-13T22:51:53.255Z,8.65
2022-09-13T22:54:24.794Z,9.95
2022-09-13T22:56:52.424Z,9.85
2022-09-13T22:59:24.029Z,8.93
2022-09-13T23:01:51.738Z,9.18
2022-09-13T23:04:19.471Z,8.63
2022-09-13T23:06:47.545Z,9.48
2022-09-13T23:09:20.025Z,8.68
2022-09-13T23:11:47.962Z,9.95
2022-09-13T23:14:17.265Z,8.63
2022-09-13T23:16:50.183Z,7.88
2022-09-13T23:19:20.579Z,8.80
2022-09-13T23:21:48.703Z,9.30
2022-09-13T23:24:18.651Z,8.73
2022-09-13T23:26:47.382Z,10.63
2022-09-13T23:29:20.100Z,9.90
2022-09-13T23:31:51.778Z,10.47
2022-09-13T23:34:19.670Z,10.05
2022-09-13T23:36:53.069Z,9.98
2022-09-13T23:39:23.898Z,10.35
2022-09-13T23:41:54.279Z,9.68
2022-09-13T23:44:22.070Z,9.63
2022-09-13T23:46:53.446Z,9.77
2022-09-13T23:49:21.256Z,10.40
2022-09-13T23:52:05.477Z,9.73
2022-09-13T23:54:38.611Z,10.55
2022-09-13T23:57:06.344Z,10.20
2022-09-13T23:59:49.587Z,11.10
